createdAt,value
2023-02-19T00:03:52.363Z,52.26
2023-02-19T00:08:54.578Z,52.69
2023-02-19T00:13:56.000Z,52.06
2023-02-19T00:19:03.517Z,52.11
2023-02-19T00:24:05.841Z,51.69
2023-02-19T00:29:07.404Z,50.63
2023-02-19T00:34:15.745Z,50.11
2023-02-19T00:39:18.892Z,49.64
2023-02-19T00:44:18.430Z,49.34
2023-02-19T00:49:24.514Z,49.94
2023-02-19T00:54:29.387Z,49.80
2023-02-19T00:59:33.003Z,49.73
2023-02-19T01:04:33.981Z,50.02
2023-02-19T01:09:34.975Z,49.19
2023-02-19T01:14:34.703Z,48.90
2023-02-19T01:19:38.642Z,48.82
2023-02-19T01:24:39.567Z,48.66
2023-02-19T01:29:41.098Z,48.86
2023-02-19T01:34:42.317Z,49.38
2023-02-19T01:39:41.906Z,49.53
2023-02-19T01:45:27.042Z,49.88
2023-02-19T01:50:34.221Z,50.25
2023-02-19T01:55:36.389Z,49.92
2023-02-19T02:00:36.429Z,50.29
2023-02-19T02:05:50.902Z,50.66
2023-02-19T02:10:52.417Z,50.40
2023-02-19T02:16:00.839Z,50.27
2023-02-19T02:21:48.038Z,50.61
2023-02-19T02:27:04.544Z,50.61
2023-02-19T02:32:13.343Z,50.71
2023-02-19T02:37:14.165Z,50.09
2023-02-19T02:42:30.551Z,50.13
2023-02-19T02:47:43.211Z,50.27
2023-02-19T02:53:02.975Z,50.68
2023-02-19T02:58:03.207Z,50.48
2023-02-19T03:03:06.908Z,50.98
2023-02-19T03:08:19.223Z,51.12
2023-02-19T03:13:42.931Z,50.78
2023-02-19T03:19:05.015Z,51.34
2023-02-19T03:24:24.925Z,50.97
2023-02-19T03:29:27.889Z,51.21
2023-02-19T03:34:41.489Z,51.62
2023-02-19T03:39:47.494Z,51.74
2023-02-19T03:45:05.673Z,51.73
2023-02-19T03:50:18.535Z,52.14
2023-02-19T03:55:27.458Z,53.00
2023-02-19T04:00:35.473Z,53.15
2023-02-19T04:05:43.447Z,53.16
2023-02-19T04:10:44.537Z,53.14
2023-02-19T04:15:48.191Z,53.15
2023-02-19T04:20:51.152Z,54.25
2023-02-19T04:25:56.763Z,54.94
2023-02-19T04:30:56.382Z,54.67
2023-02-19T04:35:59.166Z,54.39
2023-02-19T04:40:58.787Z,54.58
2023-02-19T04:46:03.046Z,54.67
2023-02-19T04:51:09.131Z,54.82
2023-02-19T04:56:09.990Z,55.42
2023-02-19T05:01:12.644Z,55.66
2023-02-19T05:06:18.106Z,56.54
2023-02-19T05:11:19.373Z,56.78
2023-02-19T05:16:19.524Z,56.80
2023-02-19T05:21:24.359Z,57.26
2023-02-19T05:26:25.595Z,57.04
2023-02-19T05:31:25.544Z,57.67
2023-02-19T05:36:28.797Z,57.80
2023-02-19T05:41:47.300Z,57.42
2023-02-19T05:47:03.108Z,57.51
2023-02-19T05:52:05.972Z,58.08
2023-02-19T05:57:05.738Z,58.50
2023-02-19T06:02:05.440Z,58.96
2023-02-19T06:07:16.599Z,59.14
2023-02-19T06:12:26.040Z,59.69
2023-02-19T06:17:29.916Z,60.25
2023-02-19T06:22:34.005Z,60.71
2023-02-19T06:27:43.767Z,60.83
2023-02-19T06:32:47.113Z,61.10
2023-02-19T06:37:52.612Z,61.05
2023-02-19T06:42:56.056Z,60.12
2023-02-19T06:48:08.044Z,60.69
2023-02-19T06:53:12.618Z,61.80
2023-02-19T06:58:12.401Z,61.86
2023-02-19T07:03:11.922Z,61.94
2023-02-19T07:08:17.644Z,61.49
2023-02-19T07:13:17.230Z,62.40
2023-02-19T07:18:18.708Z,62.58
2023-02-19T07:23:22.242Z,61.88
2023-02-19T07:28:37.181Z,62.50
2023-02-19T07:33:59.748Z,62.11
2023-02-19T07:39:05.056Z,61.07
2023-02-19T07:44:05.648Z,60.11
2023-02-19T07:49:38.844Z,60.07
2023-02-19T07:54:46.538Z,59.66
2023-02-19T07:59:56.334Z,59.34
2023-02-19T08:04:57.911Z,59.22
2023-02-19T08:10:27.267Z,58.41
2023-02-19T08:21:03.374Z,57.61
2023-02-19T08:26:08.200Z,56.90
2023-02-19T08:31:10.731Z,56.67
2023-02-19T08:36:23.957Z,56.49
2023-02-19T08:41:27.239Z,55.83
2023-02-19T08:46:28.483Z,55.47
2023-02-19T08:51:33.128Z,55.00
2023-02-19T08:56:50.480Z,55.10
2023-02-19T09:02:01.762Z,54.01
2023-02-19T09:07:04.769Z,53.55
2023-02-19T09:12:06.844Z,52.26
2023-02-19T09:17:08.014Z,51.81
2023-02-19T09:22:08.029Z,51.39
2023-02-19T09:27:11.145Z,51.68
2023-02-19T09:32:15.967Z,50.96
2023-02-19T09:37:26.800Z,49.33
2023-02-19T09:42:37.878Z,48.78
2023-02-19T09:47:38.818Z,47.31
2023-02-19T09:52:47.863Z,47.13
2023-02-19T09:57:50.571Z,44.83
2023-02-19T10:03:09.132Z,43.62
2023-02-19T10:08:21.675Z,43.98
2023-02-19T10:13:35.835Z,43.53
2023-02-19T10:18:43.974Z,42.99
2023-02-19T10:23:44.815Z,42.06
2023-02-19T10:28:56.101Z,41.89
2023-02-19T10:34:03.018Z,40.97
2023-02-19T10:39:09.214Z,40.55
2023-02-19T10:44:24.560Z,40.01
2023-02-19T10:49:28.390Z,39.24
2023-02-19T10:54:33.032Z,38.57
2023-02-19T10:59:37.266Z,38.46
2023-02-19T11:04:38.744Z,41.02
2023-02-19T11:09:43.382Z,39.20
2023-02-19T11:14:47.192Z,38.10
2023-02-19T11:19:49.728Z,40.50
2023-02-19T11:24:58.511Z,37.21
2023-02-19T11:30:31.878Z,38.00
2023-02-19T11:35:33.954Z,38.30
2023-02-19T11:40:44.652Z,38.32
2023-02-19T11:45:53.691Z,37.90
2023-02-19T11:51:17.148Z,38.31
2023-02-19T11:56:22.649Z,39.33
2023-02-19T12:01:33.438Z,38.70
2023-02-19T12:06:48.903Z,39.34
2023-02-19T12:12:04.265Z,38.76
2023-02-19T12:17:21.425Z,38.25
2023-02-19T12:22:33.694Z,37.80
2023-02-19T12:27:49.140Z,36.60
2023-02-19T12:33:29.012Z,37.28
2023-02-19T12:38:46.138Z,36.92
2023-02-19T12:43:55.912Z,36.62
2023-02-19T12:49:15.917Z,36.29
2023-02-19T13:01:14.232Z,36.13
2023-02-19T13:35:12.934Z,35.96
2023-02-19T13:40:43.276Z,36.85
2023-02-19T14:01:16.555Z,36.99
2023-02-19T14:40:47.477Z,41.12
2023-02-19T14:45:51.019Z,40.73
2023-02-19T14:50:52.934Z,41.07
2023-02-19T14:55:56.075Z,41.54
2023-02-19T15:00:54.891Z,41.16
2023-02-19T15:05:58.210Z,41.11
2023-02-19T15:10:58.442Z,42.09
2023-02-19T15:15:57.810Z,41.75
2023-02-19T15:21:02.511Z,42.81
2023-02-19T15:26:03.398Z,42.90
2023-02-19T15:31:14.306Z,43.20
2023-02-19T15:36:14.545Z,43.24
2023-02-19T15:41:23.071Z,43.72
2023-02-19T15:46:23.535Z,44.20
2023-02-19T15:51:28.055Z,43.69
2023-02-19T15:56:31.470Z,44.56
2023-02-19T16:01:31.736Z,44.56
2023-02-19T16:06:30.703Z,44.65
2023-02-19T16:11:36.391Z,44.91
2023-02-19T16:16:41.091Z,44.85
2023-02-19T16:21:40.225Z,44.97
2023-02-19T16:26:43.126Z,45.08
2023-02-19T16:31:49.636Z,44.75
2023-02-19T16:36:49.560Z,44.75
2023-02-19T16:42:21.005Z,45.11
2023-02-19T16:47:45.295Z,45.00
2023-02-19T16:52:54.796Z,45.17
2023-02-19T16:57:55.474Z,46.05
2023-02-19T17:02:56.736Z,46.67
2023-02-19T17:07:55.641Z,46.76
2023-02-19T17:12:56.747Z,46.25
2023-02-19T17:17:55.741Z,46.56
2023-02-19T17:22:54.555Z,47.25
2023-02-19T17:27:53.451Z,47.43
2023-02-19T17:32:53.703Z,48.47
2023-02-19T17:37:53.552Z,47.66
2023-02-19T17:42:52.463Z,48.63
2023-02-19T17:47:51.479Z,48.38
2023-02-19T17:52:51.775Z,47.88
2023-02-19T17:57:52.184Z,47.52
2023-02-19T18:02:50.951Z,47.31
2023-02-19T18:07:52.117Z,47.43
2023-02-19T18:12:51.521Z,47.52
2023-02-19T18:17:50.690Z,47.97
2023-02-19T18:22:53.660Z,48.64
2023-02-19T18:27:54.028Z,47.76
2023-02-19T18:32:58.719Z,48.76
2023-02-19T18:38:00.281Z,49.25
2023-02-19T18:42:59.979Z,49.54
2023-02-19T18:48:01.153Z,49.17
2023-02-19T18:53:03.833Z,49.68
2023-02-19T18:58:06.361Z,49.76
2023-02-19T19:03:09.603Z,49.91
2023-02-19T19:08:09.929Z,50.57
2023-02-19T19:13:11.003Z,50.41
2023-02-19T19:18:13.338Z,50.19
2023-02-19T19:23:15.370Z,50.98
2023-02-19T19:28:14.245Z,51.36
2023-02-19T19:33:15.108Z,51.67
2023-02-19T19:38:16.343Z,51.66
2023-02-19T19:43:16.974Z,50.52
2023-02-19T19:48:16.123Z,50.72
2023-02-19T19:53:22.761Z,50.33
2023-02-19T19:58:26.068Z,49.86
2023-02-19T20:03:30.844Z,50.22
2023-02-19T20:08:34.114Z,50.63
2023-02-19T20:13:34.553Z,51.02
2023-02-19T20:18:36.306Z,51.00
2023-02-19T20:23:38.810Z,51.38
2023-02-19T20:28:38.244Z,51.27
2023-02-19T20:33:40.018Z,51.43
2023-02-19T20:38:43.602Z,51.48
2023-02-19T20:43:45.138Z,50.97
2023-02-19T20:48:47.185Z,50.85
2023-02-19T20:53:48.217Z,51.25
2023-02-19T20:58:49.122Z,51.31
2023-02-19T21:03:51.278Z,51.68
2023-02-19T21:08:54.934Z,51.89
2023-02-19T21:14:02.511Z,50.96
2023-02-19T21:19:03.759Z,50.86
2023-02-19T21:24:09.415Z,51.70
2023-02-19T21:29:12.854Z,52.65
2023-02-19T21:34:16.057Z,52.35
2023-02-19T21:39:49.242Z,52.41
2023-02-19T21:44:49.768Z,52.73
2023-02-19T21:49:49.782Z,52.42
2023-02-19T21:54:52.679Z,52.74
2023-02-19T21:59:52.781Z,53.36
2023-02-19T22:04:57.040Z,53.29
2023-02-19T22:09:59.241Z,53.38
2023-02-19T22:15:23.230Z,53.79
2023-02-19T22:20:22.405Z,53.55
2023-02-19T22:25:22.859Z,54.16
2023-02-19T22:30:22.086Z,54.30
2023-02-19T22:35:20.983Z,54.83
2023-02-19T22:40:19.889Z,54.58
2023-02-19T22:45:20.030Z,53.90
2023-02-19T22:50:20.462Z,54.25
2023-02-19T22:55:19.574Z,54.71
2023-02-19T23:00:22.410Z,55.01
2023-02-19T23:05:22.699Z,55.23
2023-02-19T23:10:21.476Z,55.25
2023-02-19T23:15:21.808Z,56.23
2023-02-19T23:20:20.593Z,56.61
2023-02-19T23:25:19.459Z,56.65
2023-02-19T23:30:18.764Z,56.82
2023-02-19T23:35:19.222Z,57.38
2023-02-19T23:40:19.043Z,58.25
2023-02-19T23:45:18.567Z,58.28
2023-02-19T23:50:19.023Z,58.50
2023-02-19T23:55:17.986Z,59.45
